createdAt,value
2023-05-23T00:00:01.630Z,45.41
2023-05-23T00:02:29.337Z,44.91
2023-05-23T00:04:58.712Z,44.70
2023-05-23T00:07:26.487Z,44.45
2023-05-23T00:09:53.942Z,44.33
2023-05-23T00:12:22.567Z,44.22
2023-05-23T00:14:50.448Z,44.34
2023-05-23T00:17:17.818Z,44.66
2023-05-23T00:19:46.389Z,44.70
2023-05-23T00:22:15.784Z,44.50
2023-05-23T00:24:44.093Z,44.66
2023-05-23T00:27:11.529Z,44.54
2023-05-23T00:29:38.954Z,44.58
2023-05-23T00:32:06.562Z,44.56
2023-05-23T00:34:34.678Z,45.05
2023-05-23T00:37:02.402Z,45.59
2023-05-23T00:39:29.941Z,46.18
2023-05-23T00:41:58.016Z,46.87
2023-05-23T00:44:26.532Z,47.48
2023-05-23T00:46:55.632Z,47.71
2023-05-23T00:49:23.495Z,48.09
2023-05-23T00:51:52.236Z,48.21
2023-05-23T00:54:29.665Z,48.29
2023-05-23T00:56:57.220Z,48.64
2023-05-23T00:59:24.965Z,48.85
2023-05-23T01:01:53.188Z,49.05
2023-05-23T01:04:20.682Z,49.45
2023-05-23T01:06:49.326Z,49.91
2023-05-23T01:09:17.003Z,50.05
2023-05-23T01:11:50.781Z,49.88
2023-05-23T01:14:22.220Z,49.72
2023-05-23T01:16:56.137Z,49.05
2023-05-23T01:19:44.785Z,49.18
2023-05-23T01:22:16.641Z,48.95
2023-05-23T01:24:55.633Z,49.13
2023-05-23T01:27:50.581Z,49.49
2023-05-23T01:30:21.168Z,49.26
2023-05-23T01:32:49.185Z,49.36
2023-05-23T01:35:20.677Z,49.51
2023-05-23T01:37:48.140Z,49.95
2023-05-23T01:40:15.616Z,50.02
2023-05-23T01:42:43.450Z,49.62
2023-05-23T01:45:11.431Z,49.37
2023-05-23T01:47:39.072Z,49.51
2023-05-23T01:50:07.230Z,49.45
2023-05-23T01:52:34.703Z,49.77
2023-05-23T01:55:02.467Z,49.76
2023-05-23T01:57:30.220Z,49.62
2023-05-23T01:59:57.768Z,49.76
2023-05-23T02:02:25.398Z,49.97
2023-05-23T02:18:30.147Z,51.72
2023-05-23T02:20:57.917Z,51.99
2023-05-23T02:23:25.436Z,52.32
2023-05-23T02:25:52.839Z,52.44
2023-05-23T02:28:20.771Z,52.64
2023-05-23T02:30:50.171Z,52.75
2023-05-23T02:33:18.017Z,52.90
2023-05-23T02:35:45.469Z,52.95
2023-05-23T02:38:12.876Z,53.08
2023-05-23T02:40:41.471Z,53.42
2023-05-23T02:43:08.868Z,53.64
2023-05-23T02:45:36.414Z,53.69
2023-05-23T02:48:04.825Z,53.82
2023-05-23T02:50:32.303Z,53.79
2023-05-23T02:52:59.787Z,53.71
2023-05-23T02:55:27.790Z,53.65
2023-05-23T02:57:56.899Z,54.07
2023-05-23T03:00:25.004Z,54.33
2023-05-23T03:02:54.946Z,54.51
2023-05-23T03:05:22.457Z,54.63
2023-05-23T03:07:52.052Z,54.86
2023-05-23T03:10:19.606Z,55.00
2023-05-23T03:12:47.279Z,54.94
2023-05-23T03:15:15.402Z,54.64
2023-05-23T03:17:43.077Z,54.81
2023-05-23T03:20:11.295Z,55.07
2023-05-23T03:22:39.372Z,55.25
2023-05-23T03:25:07.272Z,55.08
2023-05-23T03:27:34.666Z,54.90
2023-05-23T03:30:03.740Z,54.78
2023-05-23T03:32:31.151Z,54.40
2023-05-23T03:34:58.546Z,53.14
2023-05-23T03:37:25.892Z,52.36
2023-05-23T03:39:53.330Z,51.78
2023-05-23T03:42:20.672Z,51.30
2023-05-23T03:44:48.099Z,50.67
2023-05-23T03:47:15.684Z,50.31
2023-05-23T03:49:45.256Z,49.84
2023-05-23T03:52:13.026Z,49.71
2023-05-23T03:54:40.493Z,49.91
2023-05-23T03:57:08.198Z,49.82
2023-05-23T03:59:35.737Z,50.15
2023-05-23T04:02:03.481Z,50.40
2023-05-23T04:04:31.108Z,50.26
2023-05-23T04:06:59.625Z,50.26
2023-05-23T04:09:27.703Z,50.15
2023-05-23T04:11:55.079Z,50.20
2023-05-23T04:14:24.390Z,50.61
2023-05-23T04:16:52.544Z,50.58
2023-05-23T04:19:20.111Z,50.79
2023-05-23T04:21:47.576Z,50.92
2023-05-23T04:24:17.145Z,50.59
2023-05-23T04:26:44.948Z,50.56
2023-05-23T04:29:12.490Z,50.38
2023-05-23T04:31:40.209Z,50.66
2023-05-23T04:34:08.401Z,50.54
2023-05-23T04:36:38.776Z,50.43
2023-05-23T04:39:06.278Z,50.42
2023-05-23T04:41:38.911Z,50.41
2023-05-23T04:44:26.844Z,50.77
2023-05-23T04:47:09.761Z,50.58
2023-05-23T04:50:04.303Z,50.61
2023-05-23T04:52:34.194Z,50.74
2023-05-23T04:55:02.090Z,51.04
2023-05-23T04:57:29.723Z,51.03
2023-05-23T04:59:57.487Z,50.76
2023-05-23T05:02:27.247Z,50.58
2023-05-23T05:04:54.733Z,50.46
2023-05-23T05:07:22.316Z,50.35
2023-05-23T05:09:49.749Z,50.17
2023-05-23T05:12:17.766Z,50.20
2023-05-23T05:14:45.247Z,50.26
2023-05-23T05:17:13.093Z,49.84
2023-05-23T05:20:07.523Z,49.42
2023-05-23T05:22:37.065Z,49.56
2023-05-23T05:25:06.616Z,49.24
2023-05-23T05:27:35.117Z,48.56
2023-05-23T05:30:05.114Z,48.09
2023-05-23T05:32:34.237Z,48.00
2023-05-23T05:35:03.908Z,47.94
2023-05-23T05:37:31.362Z,47.76
2023-05-23T05:39:59.307Z,47.82
2023-05-23T05:42:27.633Z,47.62
2023-05-23T05:44:55.444Z,47.20
2023-05-23T05:47:23.090Z,46.90
2023-05-23T05:49:50.832Z,47.06
2023-05-23T05:52:18.530Z,46.89
2023-05-23T05:54:46.100Z,46.33
2023-05-23T05:57:13.756Z,46.49
2023-05-23T05:59:41.172Z,46.55
2023-05-23T06:02:09.316Z,46.77
2023-05-23T06:04:37.170Z,46.26
2023-05-23T06:07:05.594Z,46.54
2023-05-23T06:09:33.167Z,46.77
2023-05-23T06:12:01.419Z,46.53
2023-05-23T06:14:28.888Z,46.59
2023-05-23T06:16:57.891Z,46.57
2023-05-23T06:19:25.600Z,46.33
2023-05-23T06:21:53.414Z,46.41
2023-05-23T06:24:21.111Z,46.41
2023-05-23T06:26:48.566Z,46.40
2023-05-23T06:29:16.248Z,46.14
2023-05-23T06:31:43.815Z,46.00
2023-05-23T06:34:11.510Z,45.66
2023-05-23T06:36:39.990Z,45.97
2023-05-23T06:39:10.046Z,46.40
2023-05-23T06:41:37.840Z,46.33
2023-05-23T06:44:05.726Z,46.14
2023-05-23T06:46:33.152Z,45.64
2023-05-23T06:49:13.893Z,45.53
2023-05-23T06:51:42.241Z,45.18
2023-05-23T06:54:10.306Z,44.69
2023-05-23T06:56:37.912Z,44.93
2023-05-23T06:59:06.122Z,44.98
2023-05-23T07:01:33.835Z,45.03
2023-05-23T07:04:01.236Z,44.61
2023-05-23T07:06:28.751Z,44.65
2023-05-23T07:08:57.914Z,44.83
2023-05-23T07:11:26.548Z,44.81
2023-05-23T07:13:56.565Z,44.33
2023-05-23T07:16:35.176Z,44.02
2023-05-23T07:19:05.618Z,44.20
2023-05-23T07:21:36.205Z,44.33
2023-05-23T07:24:03.976Z,44.32
2023-05-23T07:26:31.464Z,43.43
2023-05-23T07:28:59.898Z,43.38
2023-05-23T07:31:27.674Z,43.25
2023-05-23T07:33:57.470Z,43.68
2023-05-23T07:36:41.205Z,44.11
2023-05-23T07:39:11.046Z,43.72
2023-05-23T07:41:38.414Z,42.29
2023-05-23T07:44:07.276Z,42.19
2023-05-23T07:46:35.293Z,42.67
2023-05-23T07:49:02.723Z,42.61
2023-05-23T07:51:31.042Z,42.23
2023-05-23T07:53:58.454Z,42.02
2023-05-23T07:56:26.831Z,42.03
2023-05-23T07:58:54.336Z,41.77
2023-05-23T08:01:22.306Z,41.70
2023-05-23T08:04:08.296Z,41.86
2023-05-23T08:06:48.692Z,41.32
2023-05-23T08:09:33.229Z,40.77
2023-05-23T08:27:09.072Z,40.21
2023-05-23T08:29:36.906Z,39.13
2023-05-23T08:32:03.931Z,38.85
2023-05-23T08:34:31.296Z,38.73
2023-05-23T08:36:58.253Z,39.26
2023-05-23T08:39:25.423Z,39.73
2023-05-23T08:41:57.164Z,39.98
2023-05-23T08:44:23.906Z,40.01
2023-05-23T08:46:54.637Z,39.32
2023-05-23T08:49:43.624Z,39.27
2023-05-23T08:52:12.253Z,39.14
2023-05-23T08:54:40.665Z,39.12
2023-05-23T08:57:07.507Z,39.39
2023-05-23T08:59:38.344Z,39.33
2023-05-23T09:02:06.458Z,39.62
2023-05-23T09:04:34.286Z,39.70
2023-05-23T09:07:06.787Z,39.07
2023-05-23T09:09:34.226Z,38.96
2023-05-23T09:12:02.964Z,39.44
2023-05-23T09:14:32.152Z,39.93
2023-05-23T09:17:04.352Z,39.32
2023-05-23T09:19:31.673Z,38.62
2023-05-23T09:22:03.250Z,38.33
2023-05-23T09:24:39.466Z,38.39
2023-05-23T09:27:07.870Z,38.58
2023-05-23T09:29:39.889Z,37.57
2023-05-23T09:32:19.636Z,37.52
2023-05-23T09:34:59.109Z,37.48
2023-05-23T09:37:30.835Z,37.71
2023-05-23T09:39:58.901Z,36.89
2023-05-23T09:42:25.658Z,36.99
2023-05-23T09:44:53.164Z,37.24
2023-05-23T09:47:20.311Z,36.87
2023-05-23T09:49:47.720Z,36.68
2023-05-23T09:52:14.696Z,36.35
2023-05-23T09:54:41.480Z,36.01
2023-05-23T09:57:10.292Z,35.89
2023-05-23T09:59:41.033Z,36.08
2023-05-23T10:02:10.984Z,35.90
2023-05-23T10:04:39.187Z,35.58
2023-05-23T10:07:17.954Z,35.56
2023-05-23T10:09:59.482Z,35.14
2023-05-23T10:12:32.504Z,35.56
2023-05-23T10:15:02.643Z,35.26
2023-05-23T10:17:37.001Z,35.27
2023-05-23T10:20:07.795Z,34.98
2023-05-23T10:22:35.954Z,34.45
2023-05-23T10:25:08.053Z,34.30
2023-05-23T10:27:34.855Z,34.34
2023-05-23T10:30:01.723Z,34.67
2023-05-23T10:32:29.089Z,35.02
2023-05-23T10:35:01.776Z,35.44
2023-05-23T10:37:56.803Z,35.49
2023-05-23T10:40:26.436Z,35.58
2023-05-23T10:43:10.306Z,36.21
2023-05-23T10:45:44.009Z,35.68
2023-05-23T10:48:32.164Z,35.72
2023-05-23T10:51:05.147Z,35.04
2023-05-23T10:53:34.752Z,35.55
2023-05-23T10:56:01.498Z,35.60
2023-05-23T10:58:32.240Z,34.93
2023-05-23T11:01:08.089Z,34.67
2023-05-23T11:03:48.112Z,34.93
2023-05-23T11:06:38.321Z,34.88
2023-05-23T11:10:55.251Z,34.53
2023-05-23T11:13:23.017Z,35.06
2023-05-23T11:15:50.489Z,34.29
2023-05-23T11:18:22.795Z,34.74
2023-05-23T11:24:16.495Z,34.48
2023-05-23T11:27:04.322Z,33.77
2023-05-23T11:29:31.816Z,33.52
2023-05-23T11:32:26.034Z,33.00
2023-05-23T11:34:53.480Z,32.58
2023-05-23T11:37:25.939Z,32.38
2023-05-23T11:39:55.240Z,33.44
2023-05-23T11:42:22.830Z,33.46
2023-05-23T11:44:51.541Z,33.53
2023-05-23T11:47:40.927Z,33.98
2023-05-23T11:50:08.859Z,34.07
2023-05-23T11:52:36.280Z,34.44
2023-05-23T11:55:04.200Z,34.93
2023-05-23T11:57:31.722Z,34.79
2023-05-23T11:59:59.243Z,34.67
2023-05-23T12:02:28.647Z,34.07
2023-05-23T12:04:56.154Z,34.00
2023-05-23T12:07:23.652Z,34.45
2023-05-23T12:09:51.154Z,34.49
2023-05-23T12:12:20.614Z,34.31
2023-05-23T12:14:48.140Z,34.08
2023-05-23T12:17:16.116Z,34.21
2023-05-23T12:19:46.004Z,34.04
2023-05-23T12:22:13.569Z,33.88
2023-05-23T12:24:47.775Z,33.67
2023-05-23T12:27:17.501Z,34.03
2023-05-23T12:29:50.423Z,34.18
2023-05-23T12:32:17.880Z,34.21
2023-05-23T12:34:45.444Z,34.62
2023-05-23T12:39:45.648Z,33.57
2023-05-23T12:42:13.247Z,34.07
2023-05-23T12:44:43.922Z,34.47
2023-05-23T12:47:11.340Z,34.54
2023-05-23T12:49:38.873Z,34.83
2023-05-23T12:52:06.573Z,34.18
2023-05-23T12:54:34.113Z,34.47
2023-05-23T12:57:01.580Z,34.91
2023-05-23T12:59:29.118Z,34.70
2023-05-23T13:01:56.666Z,33.73
2023-05-23T13:04:24.140Z,32.98
2023-05-23T13:06:53.050Z,32.69
2023-05-23T13:09:20.891Z,32.44
2023-05-23T13:11:48.367Z,31.57
2023-05-23T13:14:16.109Z,31.97
2023-05-23T13:17:18.759Z,32.19
2023-05-23T13:19:49.536Z,31.29
2023-05-23T13:25:52.828Z,31.96
2023-05-23T13:28:20.389Z,31.98
2023-05-23T13:30:48.209Z,32.02
2023-05-23T13:33:16.147Z,32.21
2023-05-23T13:35:44.345Z,32.09
2023-05-23T13:38:12.810Z,32.46
2023-05-23T13:40:40.507Z,32.04
2023-05-23T13:43:29.743Z,31.95
2023-05-23T13:45:57.268Z,32.13
2023-05-23T13:48:24.702Z,32.13
2023-05-23T13:50:52.208Z,31.70
2023-05-23T13:53:19.714Z,31.55
2023-05-23T13:55:47.227Z,31.16
2023-05-23T13:58:14.680Z,30.40
2023-05-23T14:00:46.431Z,28.60
2023-05-23T14:03:15.753Z,27.11
2023-05-23T14:05:52.273Z,25.62
2023-05-23T14:08:22.930Z,24.41
2023-05-23T14:11:41.990Z,23.00
2023-05-23T14:14:09.525Z,21.40
2023-05-23T14:16:37.044Z,20.26
2023-05-23T14:19:04.622Z,18.87
2023-05-23T14:21:32.545Z,18.12
2023-05-23T14:23:59.912Z,17.61
2023-05-23T14:26:27.610Z,17.56
2023-05-23T14:28:55.044Z,17.77
2023-05-23T14:31:22.585Z,17.50
2023-05-23T14:33:50.250Z,17.06
2023-05-23T14:36:18.183Z,17.11
2023-05-23T14:38:46.415Z,17.48
2023-05-23T14:41:14.191Z,17.75
2023-05-23T14:43:41.637Z,18.42
2023-05-23T14:46:16.141Z,19.06
2023-05-23T14:49:10.006Z,19.75
2023-05-23T14:51:47.457Z,20.24
2023-05-23T14:54:17.610Z,21.07
2023-05-23T14:56:45.052Z,22.53
2023-05-23T14:59:12.499Z,23.74
2023-05-23T15:01:55.870Z,24.97
2023-05-23T15:04:29.430Z,26.19
2023-05-23T15:06:57.527Z,27.70
2023-05-23T15:09:25.111Z,28.94
2023-05-23T15:11:52.584Z,29.78
2023-05-23T15:14:20.183Z,30.47
2023-05-23T15:16:48.942Z,30.65
2023-05-23T15:19:16.915Z,30.82
2023-05-23T15:21:50.387Z,31.27
2023-05-23T15:24:19.193Z,31.85
2023-05-23T15:26:47.262Z,31.78
2023-05-23T15:29:17.072Z,31.87
2023-05-23T15:31:45.247Z,31.97
2023-05-23T15:34:12.724Z,32.14
2023-05-23T15:36:40.448Z,32.96
2023-05-23T15:39:07.958Z,33.03
2023-05-23T15:41:35.510Z,31.93
2023-05-23T15:44:02.945Z,31.20
2023-05-23T15:46:53.236Z,30.66
2023-05-23T15:49:27.352Z,30.16
2023-05-23T15:51:55.651Z,29.46
2023-05-23T15:54:23.221Z,28.60
2023-05-23T15:56:50.778Z,28.40
2023-05-23T15:59:18.247Z,28.52
2023-05-23T16:01:45.713Z,28.95
2023-05-23T16:04:13.321Z,29.46
2023-05-23T16:06:43.846Z,29.99
2023-05-23T16:09:11.385Z,30.22
2023-05-23T16:11:38.852Z,30.77
2023-05-23T16:14:06.600Z,31.16
2023-05-23T16:16:45.837Z,31.20
2023-05-23T16:19:13.357Z,31.06
2023-05-23T16:21:40.850Z,31.28
2023-05-23T16:24:08.345Z,31.66
2023-05-23T16:26:35.747Z,31.85
2023-05-23T16:29:03.181Z,32.31
2023-05-23T16:31:30.765Z,32.79
2023-05-23T16:33:58.868Z,33.20
2023-05-23T16:36:27.426Z,33.50
2023-05-23T16:38:55.772Z,34.25
2023-05-23T16:41:23.519Z,34.92
2023-05-23T16:43:51.762Z,34.87
2023-05-23T16:46:20.629Z,34.53
2023-05-23T16:48:48.807Z,35.07
2023-05-23T16:51:16.429Z,35.18
2023-05-23T16:53:43.854Z,35.55
2023-05-23T16:56:11.398Z,35.72
2023-05-23T16:58:38.974Z,35.95
2023-05-23T17:01:07.372Z,36.23
2023-05-23T17:03:35.557Z,36.64
2023-05-23T17:06:03.242Z,37.74
2023-05-23T17:08:30.588Z,38.95
2023-05-23T17:10:57.979Z,39.34
2023-05-23T17:13:25.369Z,39.50
2023-05-23T17:15:52.727Z,39.51
2023-05-23T17:18:20.385Z,39.47
2023-05-23T17:20:47.805Z,40.02
2023-05-23T17:23:15.248Z,39.86
2023-05-23T17:25:43.002Z,39.74
2023-05-23T17:28:11.567Z,39.87
2023-05-23T17:30:38.996Z,40.46
2023-05-23T17:33:06.538Z,40.30
2023-05-23T17:35:34.392Z,40.28
2023-05-23T17:38:02.618Z,40.45
2023-05-23T17:40:30.226Z,40.75
2023-05-23T17:42:57.705Z,40.73
2023-05-23T17:45:25.106Z,40.97
2023-05-23T17:47:52.539Z,41.26
2023-05-23T17:50:19.973Z,41.50
2023-05-23T17:52:47.992Z,41.44
2023-05-23T17:55:15.498Z,41.39
2023-05-23T17:57:43.536Z,41.60
2023-05-23T18:00:11.755Z,42.10
2023-05-23T18:02:42.305Z,42.19
2023-05-23T18:05:10.728Z,42.78
2023-05-23T18:07:38.150Z,43.49
2023-05-23T18:10:06.595Z,43.87
2023-05-23T18:12:34.047Z,44.22
2023-05-23T18:15:01.481Z,43.93
2023-05-23T18:17:29.009Z,43.77
2023-05-23T18:19:57.016Z,43.68
2023-05-23T18:22:25.047Z,44.06
2023-05-23T18:24:52.545Z,44.69
2023-05-23T18:27:20.060Z,44.79
2023-05-23T18:29:47.515Z,45.03
2023-05-23T18:32:15.293Z,45.04
2023-05-23T18:34:42.849Z,45.04
2023-05-23T18:37:10.359Z,45.18
2023-05-23T18:39:37.795Z,45.32
2023-05-23T18:42:05.785Z,45.75
2023-05-23T18:44:33.384Z,45.99
2023-05-23T18:47:01.004Z,46.16
2023-05-23T18:49:28.491Z,46.31
2023-05-23T18:51:57.026Z,46.70
2023-05-23T18:54:24.443Z,46.89
2023-05-23T18:56:51.842Z,47.08
2023-05-23T18:59:19.207Z,47.56
2023-05-23T19:01:46.787Z,47.92
2023-05-23T19:04:14.344Z,48.28
2023-05-23T19:06:41.824Z,48.32
2023-05-23T19:09:11.721Z,48.33
2023-05-23T19:11:39.976Z,48.92
2023-05-23T19:14:07.351Z,49.62
2023-05-23T19:16:36.539Z,49.85
2023-05-23T19:19:03.979Z,50.34
2023-05-23T19:21:32.015Z,50.54
2023-05-23T19:23:59.505Z,50.56
2023-05-23T19:26:28.130Z,50.89
2023-05-23T19:28:55.657Z,51.15
2023-05-23T19:31:23.216Z,51.33
2023-05-23T19:33:50.697Z,51.57
2023-05-23T19:36:18.190Z,51.76
2023-05-23T19:38:45.647Z,51.81
2023-05-23T19:41:13.035Z,51.94
2023-05-23T19:43:40.456Z,52.10
2023-05-23T19:46:08.053Z,52.22
2023-05-23T19:48:35.530Z,52.66
2023-05-23T19:51:02.993Z,52.78
2023-05-23T19:53:31.212Z,53.15
2023-05-23T19:55:58.615Z,53.42
2023-05-23T19:58:26.046Z,53.60
2023-05-23T20:00:53.434Z,53.91
2023-05-23T20:03:20.974Z,53.98
2023-05-23T20:05:48.514Z,54.25
2023-05-23T20:08:17.425Z,54.57
2023-05-23T20:10:45.992Z,55.68
2023-05-23T20:13:13.534Z,56.71
2023-05-23T20:15:41.242Z,57.32
2023-05-23T20:18:08.983Z,57.62
2023-05-23T20:20:36.567Z,57.70
2023-05-23T20:23:04.946Z,57.84
2023-05-23T20:25:33.880Z,58.00
2023-05-23T20:28:01.373Z,58.13
2023-05-23T20:30:29.231Z,58.04
2023-05-23T20:32:56.805Z,58.28
2023-05-23T20:35:24.301Z,58.33
2023-05-23T20:37:51.934Z,58.36
2023-05-23T20:40:23.019Z,57.88
2023-05-23T20:42:50.551Z,57.35
2023-05-23T20:45:18.318Z,57.23
2023-05-23T20:47:46.482Z,57.25
2023-05-23T20:50:14.846Z,57.07
2023-05-23T20:52:43.302Z,56.83
2023-05-23T20:55:11.218Z,56.92
2023-05-23T20:57:39.830Z,57.23
2023-05-23T21:00:11.331Z,57.64
2023-05-23T21:02:42.591Z,57.54
2023-05-23T21:05:10.608Z,57.63
2023-05-23T21:07:38.473Z,57.89
2023-05-23T21:10:06.505Z,58.06
2023-05-23T21:12:34.476Z,58.37
2023-05-23T21:15:01.949Z,59.22
2023-05-23T21:17:29.402Z,59.74
2023-05-23T21:19:57.274Z,59.95
2023-05-23T21:22:24.821Z,59.81
2023-05-23T21:24:52.283Z,59.52
2023-05-23T21:27:20.204Z,59.56
2023-05-23T21:29:47.702Z,59.85
2023-05-23T21:32:15.128Z,59.84
2023-05-23T21:34:42.585Z,59.66
2023-05-23T21:37:10.081Z,59.69
2023-05-23T21:39:50.694Z,59.83
2023-05-23T21:42:19.631Z,59.95
2023-05-23T21:44:47.179Z,59.88
2023-05-23T21:47:14.672Z,60.02
2023-05-23T21:49:42.283Z,60.18
2023-05-23T21:52:09.730Z,60.34
2023-05-23T21:54:37.199Z,60.52
2023-05-23T21:58:07.741Z,60.71
2023-05-23T22:00:35.176Z,60.83
2023-05-23T22:03:02.704Z,61.12
2023-05-23T22:05:30.222Z,61.18
2023-05-23T22:07:57.649Z,61.12
2023-05-23T22:10:25.121Z,61.12
2023-05-23T22:12:52.571Z,61.36
2023-05-23T22:15:20.095Z,61.53
2023-05-23T22:17:47.537Z,61.70
2023-05-23T22:20:16.843Z,61.77
2023-05-23T22:22:44.272Z,61.54
2023-05-23T22:25:11.687Z,61.38
2023-05-23T22:27:39.187Z,61.22
2023-05-23T22:30:07.160Z,61.22
2023-05-23T22:32:34.723Z,61.51
2023-05-23T22:35:02.416Z,61.63
2023-05-23T22:37:30.019Z,61.53
2023-05-23T22:39:57.558Z,61.32
2023-05-23T22:42:25.213Z,61.18
2023-05-23T22:44:52.720Z,61.16
2023-05-23T22:47:20.437Z,61.23
2023-05-23T22:49:48.021Z,61.31
2023-05-23T22:52:16.841Z,61.32
2023-05-23T22:54:44.413Z,61.50
2023-05-23T22:57:12.084Z,61.90
2023-05-23T22:59:39.875Z,61.95
2023-05-23T23:02:07.483Z,61.98
2023-05-23T23:04:35.567Z,62.11
2023-05-23T23:07:03.092Z,62.05
2023-05-23T23:09:30.649Z,62.11
2023-05-23T23:11:58.082Z,62.29
2023-05-23T23:14:25.922Z,62.53
2023-05-23T23:16:53.562Z,62.68
2023-05-23T23:19:22.012Z,62.67
2023-05-23T23:21:49.517Z,62.61
2023-05-23T23:24:17.951Z,62.61
2023-05-23T23:39:20.686Z,61.81
2023-05-23T23:41:47.755Z,60.94
2023-05-23T23:44:14.967Z,61.06
2023-05-23T23:46:41.903Z,61.24
2023-05-23T23:49:08.565Z,61.56
2023-05-23T23:51:36.120Z,61.43
2023-05-23T23:54:02.754Z,61.35
2023-05-23T23:56:29.745Z,61.41
2023-05-23T23:58:56.363Z,61.75
